Terminal Aerodrome Forecast
Issued by NWS

Home | Current Version | Previous Version | Text Only | Print | Product List | Glossary On
Versions: 1 2 3 4 5 6 7 8 9 10 11 12 13 14
000
FTUS45 KRIW 232300
TAFCPR
TAF
KCPR 232328Z 2400/2424 VRB08G15KT P6SM -SHRA BKN080
     FM240400 VRB06KT P6SM BKN090
     FM240700 VRB06KT P6SM SCT015 BKN040
     FM241600 28007KT P6SM SCT060=

USA.gov is the U.S. government's official web portal to all federal, state and local government web resources and services.